Terminal Aerodrome Forecast
Issued by NWS Atlanta, GA

Home | Current Version | Previous Version | Text Only | Print | Product List | Glossary On
Versions: 1 2 3 4 5 6 7 8 9 10 11 12 13 14 15 16 17 18 19 20 21 22 23 24 25 26 27 28 29 30 31 32 33 34 35 36 37
000
FTUS42 KFFC 220724 AAA
TAFATL
TAF AMD
KATL 220724Z 2207/2312 11006KT P6SM -RA FEW005 BKN120
     FM220830 12006KT P6SM -RA OVC006
     FM221000 12005KT 5SM BR OVC005
     FM221300 12007KT 5SM -SHRA BKN008 OVC012
     FM221600 13008KT P6SM VCSH SCT008 OVC012
     FM222000 15008KT 6SM SHRA OVC025
     FM230100 13007KT P6SM OVC025
     FM230300 15007KT P6SM SCT008 BKN012=

USA.gov is the U.S. government's official web portal to all federal, state and local government web resources and services.